Time;durP1;ratioP1;P1;durP2;ratioP2;P2;SDS_P1;SDS_P2;PMS_P1;PMS_P2;Temp;Humidity;BMP_temperature;BMP_pressure;BME280_temperature;BME280_humidity;BME280_pressure;Samples;Min_cycle;Max_cycle;Signal;HPM_P1;HPM_P2
2023/03/10 00:02:34;;;;;;;27.33;16.70;;;;;;;2.05;100.00;98991.59;4795807;29;20214;-70
2023/03/10 00:05:15;;;;;;;31.05;17.83;;;;;;;2.01;100.00;98980.50;4795357;29;20213;-70
2023/03/10 00:07:51;;;;;;;32.22;16.10;;;;;;;1.92;100.00;98989.66;4804624;29;20260;-71
2023/03/10 00:10:24;;;;;;;26.70;14.65;;;;;;;1.78;100.00;98982.56;4782792;30;20202;-70
2023/03/10 00:12:56;;;;;;;29.40;16.80;;;;;;;1.81;100.00;98974.16;4796521;29;20241;-71
2023/03/10 00:15:32;;;;;;;34.92;16.17;;;;;;;1.80;100.00;98963.69;4789527;29;20226;-70
2023/03/10 00:18:06;;;;;;;29.55;15.85;;;;;;;1.77;100.00;98959.59;4795848;29;20221;-70
2023/03/10 00:20:38;;;;;;;31.58;16.15;;;;;;;1.77;100.00;98956.09;4775279;29;20206;-71
2023/03/10 00:23:12;;;;;;;29.83;17.00;;;;;;;1.79;100.00;98962.06;4787074;30;20566;-71
2023/03/10 00:25:45;;;;;;;33.05;15.23;;;;;;;1.83;100.00;98953.47;4819680;29;20212;-71
2023/03/10 00:28:23;;;;;;;26.05;15.60;;;;;;;1.74;100.00;98950.09;4791395;29;20660;-70
2023/03/10 00:31:13;;;;;;;30.75;15.95;;;;;;;1.78;100.00;98942.56;4779248;29;20229;-70
2023/03/10 00:33:46;;;;;;;24.77;14.93;;;;;;;1.94;100.00;98934.25;4788817;29;20202;-70
2023/03/10 00:36:20;;;;;;;28.98;15.10;;;;;;;1.92;100.00;98930.97;4788269;29;20297;-69
2023/03/10 00:38:55;;;;;;;29.15;17.02;;;;;;;1.76;100.00;98931.25;4799276;29;20225;-70
2023/03/10 00:41:32;;;;;;;28.25;15.10;;;;;;;1.83;100.00;98926.00;4789024;29;20213;-70
2023/03/10 00:44:09;;;;;;;24.95;14.45;;;;;;;1.82;100.00;98922.50;4791143;29;20202;-70
2023/03/10 00:46:46;;;;;;;35.22;16.63;;;;;;;1.90;100.00;98911.66;4802274;29;20221;-69
2023/03/10 00:49:21;;;;;;;31.33;16.48;;;;;;;1.89;100.00;98904.69;4802034;29;20634;-72
2023/03/10 00:51:54;;;;;;;25.30;15.68;;;;;;;1.83;100.00;98899.31;4787132;30;20198;-70
2023/03/10 00:54:29;;;;;;;27.55;16.20;;;;;;;1.77;100.00;98895.59;4809671;29;20198;-72
2023/03/10 00:57:01;;;;;;;25.20;14.27;;;;;;;1.70;100.00;98897.38;4789757;29;20617;-71
2023/03/10 00:59:49;;;;;;;28.77;15.13;;;;;;;1.69;100.00;98893.06;4801944;29;20216;-71
2023/03/10 01:02:28;;;;;;;28.75;15.50;;;;;;;1.63;100.00;98876.00;4804729;29;20205;-71
2023/03/10 01:05:03;;;;;;;29.83;17.00;;;;;;;1.52;100.00;98857.03;4817010;29;20267;-70
2023/03/10 01:07:36;;;;;;;33.58;18.45;;;;;;;1.63;100.00;98854.69;4786835;29;20234;-69
2023/03/10 01:10:13;;;;;;;31.70;17.63;;;;;;;1.67;100.00;98849.78;4789958;29;20224;-70
2023/03/10 01:12:48;;;;;;;35.30;15.48;;;;;;;1.62;100.00;98844.19;4810156;29;20674;-71
2023/03/10 01:15:19;;;;;;;35.58;18.60;;;;;;;1.72;100.00;98847.34;4791959;29;20294;-71
2023/03/10 01:17:54;;;;;;;33.47;18.35;;;;;;;1.72;100.00;98836.69;4805581;29;20269;-71
2023/03/10 01:20:28;;;;;;;31.73;16.50;;;;;;;1.65;100.00;98817.16;4786539;30;20693;-71
2023/03/10 01:23:06;;;;;;;37.35;19.05;;;;;;;1.63;100.00;98816.53;4787485;29;20259;-70
2023/03/10 01:25:37;;;;;;;38.78;18.63;;;;;;;1.61;100.00;98810.56;4801378;29;20202;-71
2023/03/10 01:28:13;;;;;;;32.58;16.63;;;;;;;1.63;100.00;98801.38;4787789;29;20275;-71
2023/03/10 01:30:45;;;;;;;33.65;20.23;;;;;;;1.66;100.00;98797.47;4801886;29;20293;-70
2023/03/10 01:33:24;;;;;;;38.15;18.73;;;;;;;1.73;100.00;98793.84;4802009;29;20236;-71
2023/03/10 01:36:00;;;;;;;29.25;16.02;;;;;;;1.58;100.00;98785.13;4804224;29;20198;-69
2023/03/10 01:38:35;;;;;;;29.25;15.85;;;;;;;1.53;100.00;98787.56;4801304;29;20234;-70
2023/03/10 01:41:12;;;;;;;34.03;19.70;;;;;;;1.60;100.00;98787.56;4792217;29;20687;-70
2023/03/10 01:43:51;;;;;;;28.67;15.93;;;;;;;1.68;100.00;98779.44;4787819;29;20267;-71
2023/03/10 01:46:51;;;;;;;27.27;14.88;;;;;;;1.67;100.00;98772.47;4785505;30;20278;-70
2023/03/10 01:53:48;;;;;;;36.05;18.30;;;;;;;1.70;100.00;98751.56;4796051;29;20286;-70
2023/03/10 01:56:23;;;;;;;29.27;15.15;;;;;;;1.68;100.00;98747.44;4799307;29;20211;-70
2023/03/10 01:58:54;;;;;;;29.92;14.25;;;;;;;1.65;100.00;98735.31;4790566;29;20655;-71
2023/03/10 02:01:26;;;;;;;30.98;17.02;;;;;;;1.66;100.00;98738.81;4772593;29;20215;-71
2023/03/10 02:04:06;;;;;;;29.55;15.95;;;;;;;1.67;100.00;98724.47;4794789;29;20274;-71
2023/03/10 02:06:40;;;;;;;26.00;12.52;;;;;;;1.65;100.00;98721.16;4790174;29;20673;-70
2023/03/10 02:09:15;;;;;;;28.38;15.35;;;;;;;1.72;100.00;98712.19;4795355;29;20282;-70
2023/03/10 02:11:50;;;;;;;37.10;14.85;;;;;;;1.70;100.00;98705.41;4812896;29;20666;-70
2023/03/10 02:14:22;;;;;;;28.48;16.20;;;;;;;1.70;100.00;98702.75;4804767;29;20212;-71
2023/03/10 02:16:53;;;;;;;32.95;15.00;;;;;;;1.67;100.00;98703.16;4806058;29;20211;-71
2023/03/10 02:19:37;;;;;;;24.50;14.82;;;;;;;1.62;100.00;98689.59;4809253;29;20685;-69
2023/03/10 02:22:11;;;;;;;26.02;15.13;;;;;;;1.57;100.00;98681.38;4802089;29;20360;-70
2023/03/10 02:24:55;;;;;;;36.00;15.35;;;;;;;1.58;100.00;98678.50;4795144;29;20220;-71
2023/03/10 02:27:35;;;;;;;33.85;16.90;;;;;;;1.60;100.00;98675.63;4791347;29;20230;-71
2023/03/10 02:30:11;;;;;;;31.95;14.77;;;;;;;1.51;100.00;98661.66;4804202;29;20216;-71
2023/03/10 02:32:45;;;;;;;28.73;16.83;;;;;;;1.52;100.00;98652.63;4806211;29;20213;-71
2023/03/10 02:35:18;;;;;;;30.08;16.05;;;;;;;1.57;100.00;98647.53;4804588;29;20267;-70
2023/03/10 02:38:06;;;;;;;35.88;17.55;;;;;;;1.52;100.00;98641.16;4789285;29;20229;-72
2023/03/10 02:40:39;;;;;;;31.92;15.88;;;;;;;1.55;100.00;98638.09;4795053;29;20633;-70
2023/03/10 02:43:36;;;;;;;30.42;15.32;;;;;;;1.43;100.00;98621.03;4797546;29;20297;-71
2023/03/10 02:46:23;;;;;;;24.08;14.15;;;;;;;1.47;100.00;98614.28;4804221;29;20301;-70
2023/03/10 02:48:55;;;;;;;25.92;12.38;;;;;;;1.43;100.00;98615.69;4789586;29;20214;-70
2023/03/10 02:51:35;;;;;;;23.92;13.02;;;;;;;1.51;100.00;98607.53;4804128;29;20233;-70
2023/03/10 02:54:24;;;;;;;22.23;12.55;;;;;;;1.60;100.00;98595.66;4808601;29;20228;-69
2023/03/10 02:57:01;;;;;;;28.90;15.05;;;;;;;1.63;100.00;98595.28;4803855;29;20198;-71
2023/03/10 02:59:36;;;;;;;21.45;14.30;;;;;;;1.60;100.00;98590.31;4804072;29;20587;-70
2023/03/10 03:02:07;;;;;;;22.95;13.27;;;;;;;1.63;100.00;98579.28;4783475;29;20690;-70
2023/03/10 03:04:40;;;;;;;23.15;13.80;;;;;;;1.62;100.00;98569.63;4785887;29;20209;-70
2023/03/10 03:10:10;;;;;;;24.30;14.10;;;;;;;1.57;100.00;98570.25;4804165;29;20310;-71
2023/03/10 03:12:45;;;;;;;23.92;11.98;;;;;;;1.53;100.00;98578.84;4798119;29;20233;-70
2023/03/10 03:15:19;;;;;;;21.70;12.00;;;;;;;1.44;100.00;98586.19;4807457;29;20210;-71
2023/03/10 03:17:54;;;;;;;20.02;10.75;;;;;;;1.52;100.00;98578.00;4792934;29;20594;-70
2023/03/10 03:20:24;;;;;;;14.82;10.73;;;;;;;1.49;100.00;98561.59;4801695;29;20675;-71
2023/03/10 03:22:57;;;;;;;18.67;10.48;;;;;;;1.54;100.00;98560.00;4803443;29;20202;-69
2023/03/10 03:25:29;;;;;;;20.30;10.98;;;;;;;1.65;100.00;98550.56;4799759;29;20209;-70
2023/03/10 03:28:04;;;;;;;17.48;10.30;;;;;;;1.61;100.00;98544.00;4791236;29;20656;-71
2023/03/10 03:30:39;;;;;;;14.30;10.35;;;;;;;1.59;100.00;98540.72;4796057;29;20190;-71
2023/03/10 03:33:13;;;;;;;19.70;11.43;;;;;;;1.55;100.00;98528.84;4803804;29;20263;-70
2023/03/10 03:36:38;;;;;;;20.67;10.82;;;;;;;1.49;100.00;98525.13;4803557;29;20288;-69
2023/03/10 03:39:16;;;;;;;16.00;9.35;;;;;;;1.57;100.00;98524.09;4801663;29;20205;-70
2023/03/10 03:41:56;;;;;;;14.05;9.30;;;;;;;1.55;100.00;98518.16;4803609;29;20267;-69
2023/03/10 03:44:34;;;;;;;13.98;10.57;;;;;;;1.56;100.00;98514.47;4802560;29;20217;-71
2023/03/10 03:47:10;;;;;;;15.90;11.07;;;;;;;1.54;100.00;98513.84;4809946;29;20213;-71
2023/03/10 03:49:43;;;;;;;16.30;10.63;;;;;;;1.57;100.00;98503.59;4805561;29;20218;-70
2023/03/10 03:52:27;;;;;;;17.88;9.05;;;;;;;1.54;100.00;98495.19;4794288;29;20204;-70
2023/03/10 03:54:59;;;;;;;16.00;12.90;;;;;;;1.57;100.00;98489.44;4806089;29;20203;-71
2023/03/10 03:57:33;;;;;;;21.38;11.30;;;;;;;1.51;100.00;98485.75;4793498;29;20705;-71
2023/03/10 04:00:08;;;;;;;12.95;9.07;;;;;;;1.58;100.00;98475.94;4792034;29;20281;-70
2023/03/10 04:02:52;;;;;;;17.58;9.52;;;;;;;1.58;100.00;98465.28;4805149;29;20202;-71
2023/03/10 04:05:26;;;;;;;14.95;8.40;;;;;;;1.58;100.00;98462.59;4790542;29;20206;-69
2023/03/10 04:08:04;;;;;;;12.57;7.22;;;;;;;1.66;100.00;98466.91;4798551;29;20233;-70
2023/03/10 04:10:38;;;;;;;14.40;10.32;;;;;;;1.58;100.00;98448.44;4805628;29;20215;-70
2023/03/10 04:13:12;;;;;;;19.80;10.43;;;;;;;1.64;100.00;98451.13;4782446;29;20673;-69
2023/03/10 04:15:45;;;;;;;15.45;8.13;;;;;;;1.65;100.00;98449.25;4803043;29;20312;-70
2023/03/10 04:18:24;;;;;;;16.25;9.63;;;;;;;1.65;100.00;98444.75;4801578;29;20293;-70
2023/03/10 04:21:02;;;;;;;14.65;9.38;;;;;;;1.66;100.00;98430.41;4788307;29;20213;-71
2023/03/10 04:23:41;;;;;;;15.73;10.68;;;;;;;1.65;100.00;98428.75;4778987;29;20198;-70
2023/03/10 04:26:15;;;;;;;17.80;11.50;;;;;;;1.64;100.00;98436.97;4795128;29;20208;-70
2023/03/10 04:28:48;;;;;;;12.85;9.38;;;;;;;1.69;100.00;98437.19;4805668;29;20210;-69
2023/03/10 04:31:29;;;;;;;16.85;9.77;;;;;;;1.71;100.00;98427.13;4790088;29;20665;-70
2023/03/10 04:34:09;;;;;;;14.65;10.23;;;;;;;1.70;100.00;98412.97;4801062;29;20289;-69
2023/03/10 04:36:44;;;;;;;16.73;10.55;;;;;;;1.86;100.00;98442.91;4799219;29;20210;-71
2023/03/10 04:39:17;;;;;;;11.38;9.60;;;;;;;1.87;100.00;98441.91;4801784;29;20554;-69
2023/03/10 04:41:51;;;;;;;15.25;9.00;;;;;;;1.90;100.00;98414.81;4803437;29;20202;-69
2023/03/10 04:44:27;;;;;;;14.52;9.57;;;;;;;1.82;100.00;98413.19;4802803;29;20237;-70
2023/03/10 04:47:04;;;;;;;12.70;8.20;;;;;;;1.80;100.00;98441.88;4802760;29;20230;-70
2023/03/10 04:49:41;;;;;;;19.67;10.93;;;;;;;1.95;100.00;98418.50;4806739;29;20238;-69
2023/03/10 04:52:16;;;;;;;10.60;7.25;;;;;;;1.91;100.00;98411.13;4799581;29;20291;-70
2023/03/10 04:54:54;;;;;;;11.27;7.80;;;;;;;1.81;100.00;98416.88;4802787;29;20755;-70
2023/03/10 04:57:29;;;;;;;13.85;9.82;;;;;;;1.91;100.00;98419.94;4787119;29;20222;-69
2023/03/10 05:00:04;;;;;;;11.65;6.57;;;;;;;1.91;100.00;98419.13;4791097;29;20683;-70
2023/03/10 05:02:38;;;;;;;14.60;8.25;;;;;;;1.88;100.00;98404.38;4783426;29;20224;-69
2023/03/10 05:05:18;;;;;;;12.48;8.70;;;;;;;1.92;100.00;98386.09;4796518;29;20220;-70
2023/03/10 05:07:50;;;;;;;10.60;8.77;;;;;;;1.91;100.00;98384.44;4777793;29;20217;-68
2023/03/10 05:10:22;;;;;;;13.63;8.07;;;;;;;1.93;100.00;98388.56;4801702;29;20229;-69
2023/03/10 05:12:55;;;;;;;11.68;7.60;;;;;;;1.84;100.00;98384.44;4801687;29;20210;-69
2023/03/10 05:15:30;;;;;;;12.18;7.80;;;;;;;1.83;100.00;98374.00;4800586;29;20210;-69
2023/03/10 05:18:04;;;;;;;10.75;8.32;;;;;;;1.85;100.00;98375.44;4802453;29;20242;-69
2023/03/10 05:20:37;;;;;;;15.50;8.55;;;;;;;1.84;100.00;98367.66;4792672;29;20198;-70
2023/03/10 05:23:13;;;;;;;14.38;8.27;;;;;;;1.89;100.00;98355.31;4802856;29;20268;-69
2023/03/10 05:25:44;;;;;;;16.67;9.98;;;;;;;1.86;100.00;98362.91;4790334;29;20205;-69
2023/03/10 05:28:17;;;;;;;14.13;9.07;;;;;;;1.76;100.00;98358.00;4805745;29;20287;-70
2023/03/10 05:30:50;;;;;;;12.63;9.13;;;;;;;1.88;100.00;98345.69;4799832;29;20593;-69
2023/03/10 05:33:23;;;;;;;16.67;9.50;;;;;;;1.85;100.00;98347.94;4787699;29;20214;-69
2023/03/10 05:36:08;;;;;;;14.07;8.85;;;;;;;1.81;100.00;98339.53;4788691;29;20212;-68
2023/03/10 05:38:40;;;;;;;13.65;9.00;;;;;;;1.72;100.00;98338.94;4782074;30;20640;-69
2023/03/10 05:41:16;;;;;;;11.00;6.93;;;;;;;1.82;100.00;98337.69;4797955;29;20248;-69
2023/03/10 05:43:50;;;;;;;12.98;8.43;;;;;;;1.89;100.00;98322.53;4806104;29;20693;-68
2023/03/10 05:46:21;;;;;;;11.10;8.73;;;;;;;1.84;100.00;98328.47;4803984;29;20206;-69
2023/03/10 05:48:58;;;;;;;12.43;8.32;;;;;;;1.84;100.00;98328.47;4788656;29;20275;-69
2023/03/10 05:51:34;;;;;;;10.07;7.97;;;;;;;1.86;100.00;98323.75;4799590;29;20197;-70
2023/03/10 05:54:08;;;;;;;14.25;8.57;;;;;;;1.90;100.00;98324.13;4796377;29;20201;-70
2023/03/10 05:56:40;;;;;;;10.93;6.88;;;;;;;1.88;100.00;98321.69;4792394;29;20201;-69
2023/03/10 05:59:13;;;;;;;12.45;6.45;;;;;;;1.91;100.00;98323.94;4793376;29;20218;-69
2023/03/10 06:01:45;;;;;;;16.42;8.32;;;;;;;1.88;100.00;98326.22;4786211;30;20210;-69
2023/03/10 06:04:17;;;;;;;12.80;6.50;;;;;;;1.94;100.00;98320.84;4798413;29;20202;-68
2023/03/10 06:06:52;;;;;;;10.63;7.22;;;;;;;1.83;100.00;98313.50;4786970;29;20198;-68
2023/03/10 06:09:23;;;;;;;12.32;7.40;;;;;;;1.83;100.00;98310.84;4805286;29;20217;-69
2023/03/10 06:11:55;;;;;;;14.45;8.20;;;;;;;1.81;100.00;98320.06;4802339;29;20226;-68
2023/03/10 06:14:31;;;;;;;14.43;8.35;;;;;;;1.94;100.00;98323.50;4786046;29;20202;-69
2023/03/10 06:17:03;;;;;;;11.35;7.40;;;;;;;1.94;100.00;98312.03;4785985;29;20333;-69
2023/03/10 06:19:36;;;;;;;10.63;8.25;;;;;;;2.04;100.00;98315.06;4783222;29;20214;-69
2023/03/10 06:22:09;;;;;;;12.15;9.10;;;;;;;1.96;100.00;98318.81;4791346;29;20684;-69
2023/03/10 06:24:41;;;;;;;13.75;8.95;;;;;;;1.99;100.00;98318.38;4798051;29;20244;-69
2023/03/10 06:27:14;;;;;;;15.10;9.85;;;;;;;1.98;100.00;98311.41;4803290;29;20244;-68
2023/03/10 06:29:50;;;;;;;11.80;8.32;;;;;;;2.02;100.00;98301.97;4801215;29;20291;-69
2023/03/10 06:32:25;;;;;;;10.73;7.80;;;;;;;2.05;100.00;98304.19;4803629;29;20212;-69
2023/03/10 06:35:00;;;;;;;13.30;9.32;;;;;;;2.07;100.00;98304.81;4805338;29;20296;-70
2023/03/10 06:37:35;;;;;;;16.60;9.65;;;;;;;2.12;100.00;98301.53;4800763;29;20221;-69
2023/03/10 06:40:08;;;;;;;12.40;7.95;;;;;;;2.18;100.00;98303.31;4801515;29;20209;-69
2023/03/10 06:42:42;;;;;;;16.42;9.75;;;;;;;2.18;100.00;98293.47;4791723;29;20713;-69
2023/03/10 06:45:18;;;;;;;17.08;10.85;;;;;;;2.29;100.00;98296.50;4801173;29;20209;-71
2023/03/10 06:47:50;;;;;;;13.40;8.18;;;;;;;2.37;100.00;98293.63;4805998;29;20237;-69
2023/03/10 06:50:25;;;;;;;15.95;8.82;;;;;;;2.33;100.00;98297.72;4787111;29;20219;-69
2023/03/10 06:53:08;;;;;;;12.10;8.60;;;;;;;2.29;100.00;98297.34;4790951;29;20214;-72
2023/03/10 06:55:40;;;;;;;13.73;10.00;;;;;;;2.44;100.00;98289.88;4804599;29;20210;-69
2023/03/10 06:58:17;;;;;;;20.92;9.77;;;;;;;2.45;100.00;98291.50;4789509;29;20232;-69
2023/03/10 07:00:49;;;;;;;16.80;10.43;;;;;;;2.52;100.00;98291.47;4789242;30;20285;-69
2023/03/10 07:03:24;;;;;;;14.73;10.00;;;;;;;2.53;100.00;98288.59;4804147;29;20241;-71
2023/03/10 07:05:55;;;;;;;15.80;10.05;;;;;;;2.50;100.00;98288.22;4789292;29;20214;-69
2023/03/10 07:08:28;;;;;;;14.85;10.40;;;;;;;2.66;100.00;98285.03;4804014;29;20316;-68
2023/03/10 07:10:59;;;;;;;13.80;9.52;;;;;;;2.61;100.00;98274.19;4803734;29;20222;-69
2023/03/10 07:13:33;;;;;;;14.68;9.75;;;;;;;2.62;100.00;98281.13;4789059;29;20264;-69
2023/03/10 07:16:05;;;;;;;11.43;8.73;;;;;;;2.70;100.00;98288.91;4810815;29;20297;-68
2023/03/10 07:18:46;;;;;;;10.65;8.48;;;;;;;2.65;100.00;98285.25;4796868;29;20319;-69
2023/03/10 07:21:19;;;;;;;16.63;10.90;;;;;;;2.66;100.00;98281.56;4805329;29;20603;-69
2023/03/10 07:23:51;;;;;;;14.68;9.25;;;;;;;2.73;100.00;98277.78;4811057;29;20202;-69
2023/03/10 07:26:25;;;;;;;17.05;9.73;;;;;;;2.79;100.00;98276.13;4806525;29;20210;-69
2023/03/10 07:28:58;;;;;;;21.45;11.15;;;;;;;2.81;100.00;98282.88;4799221;29;20230;-68
2023/03/10 07:31:31;;;;;;;14.27;10.13;;;;;;;2.80;100.00;98283.91;4803122;29;20214;-69
2023/03/10 07:34:03;;;;;;;15.38;9.35;;;;;;;3.00;100.00;98286.47;4779304;29;20206;-70
2023/03/10 07:36:35;;;;;;;15.43;9.20;;;;;;;3.01;100.00;98286.22;4791640;29;20619;-69
2023/03/10 07:39:08;;;;;;;13.95;10.15;;;;;;;3.16;100.00;98283.22;4810872;29;20296;-68
2023/03/10 07:41:40;;;;;;;11.13;7.90;;;;;;;3.22;100.00;98276.19;4789582;29;20206;-68
2023/03/10 07:44:11;;;;;;;12.60;9.75;;;;;;;3.20;100.00;98278.25;4804047;29;20218;-69
2023/03/10 07:46:44;;;;;;;12.40;8.98;;;;;;;3.15;100.00;98278.13;4803228;29;20199;-69
2023/03/10 07:49:16;;;;;;;11.82;8.88;;;;;;;3.29;100.00;98279.66;4809145;29;20207;-69
2023/03/10 07:51:51;;;;;;;12.50;9.70;;;;;;;3.35;100.00;98286.75;4800776;29;20650;-69
2023/03/10 07:54:26;;;;;;;12.43;8.60;;;;;;;3.37;100.00;98284.69;4799772;29;20210;-69
2023/03/10 07:56:57;;;;;;;15.68;8.48;;;;;;;3.29;100.00;98291.13;4788433;29;20604;-67
2023/03/10 07:59:31;;;;;;;15.10;7.40;;;;;;;3.32;100.00;98287.22;4788419;29;20202;-67
2023/03/10 08:02:06;;;;;;;16.50;10.85;;;;;;;3.30;100.00;98289.28;4790024;29;20310;-68
2023/03/10 08:04:36;;;;;;;14.82;10.57;;;;;;;3.32;100.00;98271.19;4799214;29;20214;-69
2023/03/10 08:07:09;;;;;;;20.58;10.85;;;;;;;3.40;100.00;98278.91;4795591;29;20226;-70
2023/03/10 08:09:43;;;;;;;16.45;10.82;;;;;;;3.38;100.00;98275.66;4799713;29;20210;-68
2023/03/10 08:12:14;;;;;;;12.07;9.00;;;;;;;3.34;100.00;98285.16;4789680;29;20702;-68
2023/03/10 08:14:50;;;;;;;14.05;9.73;;;;;;;3.34;100.00;98271.78;4803427;29;20226;-69
2023/03/10 08:17:29;;;;;;;15.88;10.95;;;;;;;3.48;100.00;98271.44;4788822;29;20635;-68
2023/03/10 08:20:05;;;;;;;14.85;11.20;;;;;;;3.57;100.00;98271.97;4794555;29;20210;-70
2023/03/10 08:22:37;;;;;;;14.93;10.95;;;;;;;3.64;100.00;98264.69;4788461;29;20234;-68
2023/03/10 08:25:14;;;;;;;14.27;10.77;;;;;;;3.79;100.00;98269.69;4803246;29;20222;-68
2023/03/10 08:27:53;;;;;;;16.75;10.25;;;;;;;3.81;100.00;98271.09;4801886;29;20726;-69
2023/03/10 08:30:31;;;;;;;13.13;9.20;;;;;;;3.90;100.00;98266.28;4793912;29;20221;-69
2023/03/10 08:33:01;;;;;;;12.07;9.18;;;;;;;4.00;100.00;98266.56;4804350;29;20218;-67
2023/03/10 08:35:33;;;;;;;14.25;10.60;;;;;;;4.09;100.00;98267.06;4789747;29;20631;-68
2023/03/10 08:38:05;;;;;;;18.88;11.77;;;;;;;4.07;100.00;98258.44;4801914;29;20317;-67
2023/03/10 08:40:39;;;;;;;15.18;10.00;;;;;;;4.10;100.00;98277.56;4805319;29;20289;-68
2023/03/10 08:43:10;;;;;;;15.85;10.30;;;;;;;4.12;100.00;98274.66;4793429;29;20206;-70
2023/03/10 08:45:40;;;;;;;13.45;10.30;;;;;;;4.05;100.00;98277.41;4805678;29;20393;-69
2023/03/10 08:48:13;;;;;;;16.77;11.38;;;;;;;4.14;100.00;98285.97;4792129;29;20305;-69
2023/03/10 08:50:44;;;;;;;15.13;10.18;;;;;;;4.00;100.00;98293.31;4790679;29;20698;-69
2023/03/10 08:53:17;;;;;;;15.95;9.57;;;;;;;4.08;100.00;98285.00;4809033;29;20199;-68
2023/03/10 08:55:53;;;;;;;14.65;12.07;;;;;;;4.08;100.00;98278.81;4802256;29;20198;-68
2023/03/10 08:58:24;;;;;;;14.40;10.10;;;;;;;3.99;100.00;98301.56;4802001;29;20313;-68
2023/03/10 09:00:56;;;;;;;12.23;9.35;;;;;;;3.83;100.00;98306.47;4787106;29;20202;-69
2023/03/10 09:03:30;;;;;;;15.43;10.35;;;;;;;3.99;100.00;98304.25;4789323;29;20696;-68
2023/03/10 09:06:02;;;;;;;11.85;8.73;;;;;;;3.75;100.00;98306.75;4801898;29;20690;-67
2023/03/10 09:08:33;;;;;;;10.85;8.82;;;;;;;4.06;100.00;98307.66;4792912;29;20227;-69
2023/03/10 09:11:10;;;;;;;18.90;10.82;;;;;;;3.96;100.00;98307.38;4797991;29;20595;-68
2023/03/10 09:13:41;;;;;;;15.43;10.10;;;;;;;4.13;100.00;98295.03;4803459;29;20220;-69
2023/03/10 09:16:12;;;;;;;17.10;10.93;;;;;;;4.49;100.00;98300.34;4803610;29;20316;-68
2023/03/10 09:18:46;;;;;;;14.02;10.43;;;;;;;4.79;100.00;98306.50;4791146;29;20222;-69
2023/03/10 09:21:22;;;;;;;13.82;9.52;;;;;;;4.98;100.00;98303.78;4787647;29;20628;-68
2023/03/10 09:23:53;;;;;;;9.77;8.35;;;;;;;5.04;100.00;98302.84;4790484;29;20198;-69
2023/03/10 09:26:26;;;;;;;12.40;10.15;;;;;;;5.10;100.00;98307.31;4808002;29;20210;-69
2023/03/10 09:28:58;;;;;;;17.55;11.75;;;;;;;5.35;100.00;98321.34;4796848;29;20229;-68
2023/03/10 09:31:32;;;;;;;14.05;10.50;;;;;;;5.57;99.34;98317.03;4802622;29;20222;-68
2023/03/10 09:34:13;;;;;;;14.00;9.80;;;;;;;5.87;97.91;98313.47;4810000;29;20214;-68
2023/03/10 09:36:46;;;;;;;14.00;11.43;;;;;;;5.72;96.93;98310.41;4799687;29;20233;-67
2023/03/10 09:39:17;;;;;;;13.20;10.10;;;;;;;5.90;97.42;98302.28;4804136;29;20203;-70
2023/03/10 09:42:19;;;;;;;15.18;13.15;;;;;;;6.09;96.90;98314.50;4796664;29;20207;-68
2023/03/10 09:45:27;;;;;;;13.38;11.00;;;;;;;6.03;97.90;98308.22;4786372;29;20563;-69
2023/03/10 09:48:12;;;;;;;15.40;10.30;;;;;;;5.79;99.51;98311.94;4783403;29;20236;-68
2023/03/10 09:50:51;;;;;;;21.45;12.77;;;;;;;5.59;100.00;98344.47;4800932;29;20218;-68
2023/03/10 09:53:44;;;;;;;16.08;9.82;;;;;;;5.20;100.00;98339.72;4790047;29;20203;-69
2023/03/10 09:56:20;;;;;;;13.80;10.80;;;;;;;5.36;100.00;98328.34;4802037;29;20566;-68
2023/03/10 09:58:58;;;;;;;16.00;11.10;;;;;;;5.68;100.00;98343.06;4814999;29;20281;-72
2023/03/10 10:01:34;;;;;;;18.33;12.57;;;;;;;5.96;100.00;98344.25;4798566;29;20276;-70
2023/03/10 10:04:30;;;;;;;13.80;11.30;;;;;;;5.93;99.38;98350.94;4785539;29;20205;-70
2023/03/10 10:07:03;;;;;;;13.38;11.23;;;;;;;5.79;100.00;98343.31;4800665;29;20235;-69
2023/03/10 10:09:41;;;;;;;16.73;10.35;;;;;;;5.95;100.00;98356.06;4781705;29;20214;-68
2023/03/10 10:12:15;;;;;;;16.25;11.65;;;;;;;5.78;100.00;98349.72;4796776;29;20219;-70
2023/03/10 10:14:51;;;;;;;15.40;12.02;;;;;;;5.73;100.00;98357.66;4796977;29;20204;-70
2023/03/10 10:17:43;;;;;;;14.05;10.52;;;;;;;5.91;100.00;98354.88;4771990;29;20248;-72
2023/03/10 10:20:43;;;;;;;18.15;12.10;;;;;;;5.90;100.00;98356.78;4798703;29;20657;-69
2023/03/10 10:23:25;;;;;;;16.40;11.43;;;;;;;6.09;100.00;98360.16;4785757;29;20702;-69
2023/03/10 10:25:56;;;;;;;15.63;12.52;;;;;;;6.07;98.43;98370.28;4805803;29;20207;-69
2023/03/10 10:28:40;;;;;;;15.52;12.73;;;;;;;6.19;100.00;98367.59;4791060;29;20256;-69
2023/03/10 10:31:20;;;;;;;40.03;20.40;;;;;;;6.50;99.13;98369.88;4792488;29;20222;-70
2023/03/10 10:33:57;;;;;;;15.32;12.52;;;;;;;6.40;97.14;98367.81;4809367;29;20650;-69
2023/03/10 10:36:30;;;;;;;18.75;13.07;;;;;;;6.43;97.84;98372.72;4787177;29;20199;-69
2023/03/10 10:39:07;;;;;;;20.70;14.20;;;;;;;6.66;97.51;98365.66;4802608;29;20269;-69
2023/03/10 10:41:38;;;;;;;16.38;12.18;;;;;;;6.70;95.92;98366.78;4803990;29;20302;-69
2023/03/10 10:44:15;;;;;;;20.75;15.02;;;;;;;6.82;96.61;98378.34;4788140;29;20255;-69
2023/03/10 10:46:56;;;;;;;19.60;14.13;;;;;;;6.76;98.04;98382.78;4795390;29;20218;-68
2023/03/10 10:49:30;;;;;;;29.98;18.17;;;;;;;7.01;97.33;98385.16;4803787;29;20243;-70
2023/03/10 10:52:04;;;;;;;26.00;18.25;;;;;;;6.84;98.12;98379.72;4807926;29;20223;-69
2023/03/10 10:54:42;;;;;;;17.75;13.60;;;;;;;6.99;97.00;98380.03;4790359;29;20204;-69
2023/03/10 10:57:20;;;;;;;16.08;13.60;;;;;;;7.34;96.11;98385.25;4811574;29;20227;-69
2023/03/10 10:59:52;;;;;;;20.40;15.95;;;;;;;7.62;94.46;98386.25;4808389;29;20608;-69
2023/03/10 11:02:30;;;;;;;29.58;21.13;;;;;;;7.76;95.56;98391.06;4789159;29;20207;-69
2023/03/10 11:05:15;;;;;;;14.98;12.70;;;;;;;7.93;94.37;98388.38;4801474;29;20213;-69
2023/03/10 11:07:46;;;;;;;16.60;12.82;;;;;;;8.44;93.63;98379.19;4777227;29;20238;-70
2023/03/10 11:10:18;;;;;;;25.10;15.73;;;;;;;8.57;91.26;98394.16;4788814;29;20220;-70
2023/03/10 11:13:00;;;;;;;17.80;13.02;;;;;;;8.86;91.55;98384.81;4812516;29;20220;-70
2023/03/10 11:15:34;;;;;;;13.68;11.07;;;;;;;8.92;91.28;98386.53;4803494;29;20639;-69
2023/03/10 11:18:13;;;;;;;20.47;12.30;;;;;;;8.76;91.12;98387.41;4808153;29;20241;-68
2023/03/10 11:20:55;;;;;;;13.57;11.48;;;;;;;8.59;91.75;98376.69;4803959;29;20475;-68
2023/03/10 11:23:32;;;;;;;14.07;11.38;;;;;;;8.69;92.19;98381.38;4781079;29;20210;-68
2023/03/10 11:26:11;;;;;;;20.60;13.30;;;;;;;8.71;93.44;98368.47;4788624;29;20216;-70
2023/03/10 11:28:52;;;;;;;16.17;12.45;;;;;;;8.88;92.90;98379.19;4793605;29;20547;-68
2023/03/10 11:31:38;;;;;;;16.33;10.50;;;;;;;8.68;91.37;98375.19;4788731;29;20739;-68
2023/03/10 11:34:29;;;;;;;16.20;11.77;;;;;;;8.61;92.25;98384.53;4797047;29;20360;-68
2023/03/10 11:37:13;;;;;;;17.02;11.43;;;;;;;8.43;94.26;98387.50;4789590;29;20229;-69
2023/03/10 11:40:06;;;;;;;14.02;10.75;;;;;;;8.52;93.15;98388.72;4798557;29;20208;-69
2023/03/10 11:42:44;;;;;;;12.60;11.30;;;;;;;8.68;93.64;98390.53;4787913;29;20208;-69
2023/03/10 11:45:29;;;;;;;15.00;10.10;;;;;;;8.60;94.58;98382.91;4812758;29;20212;-67
2023/03/10 11:48:17;;;;;;;17.38;11.45;;;;;;;8.72;94.87;98378.19;4794902;29;20432;-69
2023/03/10 11:50:53;;;;;;;13.40;8.73;;;;;;;8.74;94.33;98381.44;4783370;29;20270;-69
2023/03/10 11:53:38;;;;;;;11.90;9.60;;;;;;;8.87;93.73;98367.56;4801588;29;20222;-69
2023/03/10 11:56:11;;;;;;;12.50;9.10;;;;;;;8.67;94.99;98378.13;4787374;29;20552;-69
2023/03/10 11:58:47;;;;;;;10.57;8.73;;;;;;;8.87;94.69;98372.97;4807119;29;20574;-69
2023/03/10 12:01:26;;;;;;;12.05;10.63;;;;;;;8.78;94.49;98385.28;4787475;30;20216;-69
2023/03/10 12:04:02;;;;;;;15.35;9.07;;;;;;;8.43;94.37;98379.41;4803163;29;20196;-69
2023/03/10 12:06:43;;;;;;;13.97;10.20;;;;;;;8.54;96.95;98375.78;4805889;29;20231;-69
2023/03/10 12:09:23;;;;;;;10.05;8.07;;;;;;;8.51;96.81;98379.81;4789749;29;20443;-67
2023/03/10 12:11:55;;;;;;;14.05;10.98;;;;;;;8.31;98.46;98374.16;4800036;29;20198;-69